createdAt,value
2018-12-05T00:00:11.413Z,1.4
2018-12-05T00:01:01.189Z,1.4
2018-12-05T00:01:51.531Z,1.4
2018-12-05T00:02:41.311Z,1.4
2018-12-05T00:03:31.623Z,1.4
2018-12-05T00:04:21.701Z,1.4
2018-12-05T00:05:11.766Z,1.4
2018-12-05T00:06:01.265Z,1.4
2018-12-05T00:06:51.873Z,1.4
2018-12-05T00:25:04.157Z,1.4
2018-12-05T00:25:53.950Z,1.4
2018-12-05T00:26:43.999Z,1.4
2018-12-05T00:27:34.059Z,1.4
2018-12-05T00:28:23.806Z,1.4
2018-12-05T00:29:13.624Z,1.4
2018-12-05T00:30:04.253Z,1.4
2018-12-05T00:30:54.020Z,1.4
2018-12-05T00:31:44.074Z,1.4
2018-12-05T00:32:34.456Z,1.4
2018-12-05T00:33:24.526Z,1.4
2018-12-05T00:34:13.953Z,1.4
2018-12-05T00:35:04.285Z,1.4
2018-12-05T00:35:54.623Z,1.4
2018-12-05T00:36:44.113Z,1.4
2018-12-05T00:37:34.465Z,1.4
2018-12-05T00:38:24.835Z,1.4
2018-12-05T00:39:14.848Z,1.4
2018-12-05T00:40:05.208Z,1.4
2018-12-05T00:40:54.693Z,1.4
2018-12-05T00:41:45.020Z,1.4
2018-12-05T00:42:34.807Z,1.4
2018-12-05T00:43:25.127Z,1.4
2018-12-05T00:44:14.907Z,1.4
2018-12-05T00:45:05.255Z,1.4
2018-12-05T00:45:55.305Z,1.4
2018-12-05T00:46:45.353Z,1.4
2018-12-05T00:47:34.853Z,1.4
2018-12-05T00:48:25.472Z,1.4
2018-12-05T00:49:14.972Z,1.4
2018-12-05T00:50:05.312Z,1.4
2018-12-05T00:50:55.609Z,1.4
2018-12-05T00:51:45.166Z,1.4
2018-12-05T00:52:35.212Z,1.4
2018-12-05T00:53:25.817Z,1.4
2018-12-05T00:54:15.869Z,1.4
2018-12-05T00:55:05.927Z,1.4
2018-12-05T00:55:55.986Z,1.4
2018-12-05T00:56:46.044Z,1.4
2018-12-05T00:57:35.834Z,1.4
2018-12-05T00:58:26.162Z,1.4
2018-12-05T00:59:16.232Z,1.4
2018-12-05T01:00:06.282Z,1.4
2018-12-05T01:00:56.064Z,1.4
2018-12-05T01:01:46.386Z,1.4
2018-12-05T01:02:36.448Z,1.4
2018-12-05T01:03:25.968Z,1.4
2018-12-05T01:04:16.334Z,1.4
2018-12-05T01:05:08.324Z,1.4
2018-12-05T01:05:56.111Z,1.4
2018-12-05T01:06:46.731Z,1.4
2018-12-05T01:07:36.511Z,1.4
2018-12-05T01:08:26.851Z,1.4
2018-12-05T01:09:16.636Z,1.4
2018-12-05T01:10:06.181Z,1.4
2018-12-05T01:10:57.098Z,1.4
2018-12-05T01:11:47.137Z,1.4
2018-12-05T01:12:36.590Z,1.4
2018-12-05T01:13:26.898Z,1.4
2018-12-05T01:14:17.246Z,1.4
2018-12-05T01:15:07.396Z,1.5
2018-12-05T01:15:57.053Z,1.4
2018-12-05T01:16:47.142Z,1.4
2018-12-05T01:17:36.975Z,1.4
2018-12-05T01:18:27.545Z,1.4
2018-12-05T01:19:18.092Z,1.4
2018-12-05T01:20:07.372Z,1.5
2018-12-05T01:20:57.947Z,1.5
2018-12-05T01:21:47.485Z,1.5
2018-12-05T01:22:37.812Z,1.5
2018-12-05T01:23:27.889Z,1.5
2018-12-05T01:24:17.662Z,1.5
2018-12-05T01:25:07.712Z,1.5
2018-12-05T01:25:57.770Z,1.5
2018-12-05T01:26:47.817Z,1.5
2018-12-05T01:27:38.170Z,1.5
2018-12-05T01:28:27.666Z,1.5
2018-12-05T01:29:17.993Z,1.5
2018-12-05T01:30:08.300Z,1.5
2018-12-05T01:30:58.641Z,1.5
2018-12-05T01:31:48.168Z,1.5
2018-12-05T01:32:38.504Z,1.5
2018-12-05T01:33:28.291Z,1.5
2018-12-05T01:34:18.623Z,1.5
2018-12-05T01:35:08.931Z,1.5
2018-12-05T01:35:58.469Z,1.5
2018-12-05T01:36:48.587Z,1.5
2018-12-05T01:37:38.284Z,1.5
2018-12-05T01:38:28.358Z,1.5
2018-12-05T01:39:18.687Z,1.5
2018-12-05T01:40:09.019Z,1.5
2018-12-05T01:40:59.085Z,1.5
2018-12-05T01:41:49.125Z,1.5
2018-12-05T01:42:38.643Z,1.5
2018-12-05T01:43:28.734Z,1.5
2018-12-05T01:44:18.761Z,1.5
2018-12-05T01:45:09.354Z,1.6
2018-12-05T01:45:59.129Z,1.5
2018-12-05T01:46:49.476Z,1.5
2018-12-05T01:47:39.263Z,1.5
2018-12-05T01:48:29.596Z,1.5
2018-12-05T01:49:19.652Z,1.5
2018-12-05T01:50:09.704Z,1.5
2018-12-05T01:50:59.751Z,1.5
2018-12-05T01:51:49.056Z,1.5
2018-12-05T01:52:40.118Z,1.5
2018-12-05T01:53:29.936Z,1.5
2018-12-05T01:54:20.001Z,1.5
2018-12-05T01:55:09.759Z,1.5
2018-12-05T01:56:00.073Z,1.5
2018-12-05T01:56:50.123Z,1.5
2018-12-05T01:57:40.283Z,1.6
2018-12-05T01:58:29.509Z,1.5
2018-12-05T01:59:20.058Z,1.5
2018-12-05T02:00:10.385Z,1.6
2018-12-05T02:00:59.957Z,1.5
2018-12-05T02:01:50.471Z,1.6
2018-12-05T02:02:40.278Z,1.5
2018-12-05T02:03:30.619Z,1.6
2018-12-05T02:04:20.117Z,1.5
2018-12-05T02:05:10.443Z,1.6
2018-12-05T02:06:00.235Z,1.6
2018-12-05T02:06:50.850Z,1.6
2018-12-05T02:07:40.895Z,1.6
2018-12-05T02:08:30.411Z,1.5
2018-12-05T02:09:21.017Z,1.6
2018-12-05T02:10:10.793Z,1.6
2018-12-05T02:11:01.378Z,1.6
2018-12-05T02:11:50.910Z,1.6
2018-12-05T02:12:40.730Z,1.6
2018-12-05T02:13:31.298Z,1.6
2018-12-05T02:14:21.170Z,1.6
2018-12-05T02:15:11.417Z,1.6
2018-12-05T02:16:01.201Z,1.6
2018-12-05T02:16:51.535Z,1.6
2018-12-05T02:17:40.779Z,1.6
2018-12-05T02:18:31.369Z,1.6
2018-12-05T02:19:21.709Z,1.6
2018-12-05T02:20:11.559Z,1.6
2018-12-05T02:21:02.134Z,1.6
2018-12-05T02:21:51.885Z,1.6
2018-12-05T02:22:41.658Z,1.6
2018-12-05T02:23:31.709Z,1.6
2018-12-05T02:24:21.802Z,1.6
2018-12-05T02:25:12.090Z,1.6
2018-12-05T02:26:01.929Z,1.6
2018-12-05T02:26:52.209Z,1.6
2018-12-05T02:27:42.139Z,1.6
2018-12-05T02:28:32.339Z,1.6
2018-12-05T02:29:22.106Z,1.6
2018-12-05T02:30:12.477Z,1.6
2018-12-05T02:31:02.543Z,1.6
2018-12-05T02:31:52.552Z,1.6
2018-12-05T02:32:42.651Z,1.6
2018-12-05T02:33:32.681Z,1.6
2018-12-05T02:34:22.466Z,1.6
2018-12-05T02:35:12.246Z,1.6
2018-12-05T02:36:02.866Z,1.6
2018-12-05T02:36:52.968Z,1.6
2018-12-05T02:37:42.703Z,1.6
2018-12-05T02:38:33.036Z,1.6
2018-12-05T02:39:22.807Z,1.6
2018-12-05T02:40:13.121Z,1.6
2018-12-05T02:41:02.918Z,1.6
2018-12-05T02:41:53.058Z,1.6
2018-12-05T02:42:42.511Z,1.6
2018-12-05T02:43:32.825Z,1.6
2018-12-05T02:44:23.465Z,1.6
2018-12-05T02:45:13.254Z,1.6
2018-12-05T02:46:03.542Z,1.6
2018-12-05T02:46:53.010Z,1.6
2018-12-05T02:47:43.764Z,1.6
2018-12-05T02:48:33.416Z,1.6
2018-12-05T02:49:23.233Z,1.6
2018-12-05T02:50:13.546Z,1.6
2018-12-05T02:51:03.620Z,1.6
2018-12-05T02:51:53.659Z,1.6
2018-12-05T02:52:43.717Z,1.6
2018-12-05T02:53:34.127Z,1.6
2018-12-05T02:54:23.877Z,1.6
2018-12-05T02:55:14.223Z,1.6
2018-12-05T02:56:04.214Z,1.6
2018-12-05T02:56:53.784Z,1.6
2018-12-05T02:57:44.103Z,1.6
2018-12-05T02:58:35.376Z,1.6
2018-12-05T02:59:23.938Z,1.7
2018-12-05T03:00:14.593Z,1.6
2018-12-05T03:01:04.669Z,1.7
2018-12-05T03:01:54.340Z,1.7
2018-12-05T03:02:44.685Z,1.7
2018-12-05T03:03:34.452Z,1.7
2018-12-05T03:04:24.800Z,1.7
2018-12-05T03:05:14.601Z,1.7
2018-12-05T03:06:04.950Z,1.7
2018-12-05T03:06:54.967Z,1.7
2018-12-05T03:07:44.732Z,1.7
2018-12-05T03:08:34.824Z,1.7
2018-12-05T03:09:25.434Z,1.7
2018-12-05T03:10:14.651Z,1.7
2018-12-05T03:11:04.974Z,1.7
2018-12-05T03:11:55.026Z,1.8
2018-12-05T03:12:45.095Z,1.7
2018-12-05T03:13:34.879Z,1.7
2018-12-05T03:14:25.213Z,1.8
2018-12-05T03:15:15.256Z,1.8
2018-12-05T03:16:05.313Z,1.8
2018-12-05T03:16:55.642Z,1.8
2018-12-05T03:17:45.974Z,1.8
2018-12-05T03:18:35.491Z,1.8
2018-12-05T03:19:25.572Z,1.8
2018-12-05T03:20:15.606Z,1.8
2018-12-05T03:21:05.966Z,1.8
2018-12-05T03:21:56.015Z,1.8
2018-12-05T03:22:46.053Z,1.8
2018-12-05T03:23:35.845Z,1.8
2018-12-05T03:24:26.175Z,1.8
2018-12-05T03:25:15.947Z,1.8
2018-12-05T03:26:06.007Z,1.8
2018-12-05T03:26:56.321Z,1.8
2018-12-05T03:27:46.387Z,1.8
2018-12-05T03:28:36.452Z,1.8
2018-12-05T03:29:26.497Z,1.8
2018-12-05T03:30:16.620Z,1.8
2018-12-05T03:31:06.110Z,1.8
2018-12-05T03:31:56.494Z,1.8
2018-12-05T03:32:46.785Z,1.8
2018-12-05T03:33:36.615Z,1.9
2018-12-05T03:34:26.864Z,1.9
2018-12-05T03:35:16.374Z,1.8
2018-12-05T03:36:06.682Z,1.9
2018-12-05T03:36:56.472Z,1.8
2018-12-05T03:37:46.797Z,1.9
2018-12-05T03:38:37.208Z,1.8
2018-12-05T03:39:27.211Z,1.8
2018-12-05T03:40:17.277Z,1.8
2018-12-05T03:41:07.026Z,1.9
2018-12-05T03:41:57.435Z,1.9
2018-12-05T03:42:47.136Z,1.8
2018-12-05T03:43:37.487Z,1.9
2018-12-05T03:44:27.260Z,1.9
2018-12-05T03:45:17.321Z,1.9
2018-12-05T03:46:07.108Z,1.9
2018-12-05T03:46:57.413Z,1.9
2018-12-05T03:47:47.789Z,1.9
2018-12-05T03:48:37.548Z,1.9
2018-12-05T03:49:27.873Z,1.9
2018-12-05T03:50:17.435Z,1.9
2018-12-05T03:51:08.037Z,1.9
2018-12-05T03:51:57.775Z,1.9
2018-12-05T03:52:48.116Z,1.9
2018-12-05T03:53:38.191Z,1.9
2018-12-05T03:54:28.289Z,1.9
2018-12-05T03:55:17.990Z,1.9
2018-12-05T03:56:08.101Z,1.9
2018-12-05T03:56:58.465Z,1.9
2018-12-05T03:57:48.472Z,1.9
2018-12-05T03:58:38.298Z,1.9
2018-12-05T03:59:28.025Z,1.9
2018-12-05T04:00:18.648Z,1.9
2018-12-05T04:01:08.388Z,1.9
2018-12-05T04:01:58.763Z,1.9
2018-12-05T04:02:48.782Z,1.9
2018-12-05T04:03:38.568Z,1.9
2018-12-05T04:04:28.898Z,1.9
2018-12-05T04:05:18.967Z,1.9
2018-12-05T04:06:08.757Z,1.9
2018-12-05T04:07:00.287Z,1.9
2018-12-05T04:07:48.851Z,1.9
2018-12-05T04:08:39.213Z,1.9
2018-12-05T04:09:28.979Z,1.9
2018-12-05T04:10:19.038Z,1.9
2018-12-05T04:11:08.828Z,1.9
2018-12-05T04:11:59.151Z,1.9
2018-12-05T04:12:49.195Z,1.9
2018-12-05T04:13:39.242Z,1.9
2018-12-05T04:14:29.730Z,1.9
2018-12-05T04:15:19.394Z,1.9
2018-12-05T04:16:09.419Z,1.9
2018-12-05T04:16:59.503Z,1.9
2018-12-05T04:17:49.554Z,1.9
2018-12-05T04:18:39.937Z,1.9
2018-12-05T04:19:29.652Z,1.9
2018-12-05T04:20:19.994Z,2
2018-12-05T04:21:10.042Z,1.9
2018-12-05T04:22:00.104Z,1.9
2018-12-05T04:22:49.887Z,1.9
2018-12-05T04:23:40.244Z,2
2018-12-05T04:24:30.349Z,1.9
2018-12-05T04:25:20.057Z,2
2018-12-05T04:26:10.114Z,1.9
2018-12-05T04:27:00.202Z,2
2018-12-05T04:27:50.509Z,2
2018-12-05T04:28:40.017Z,2
2018-12-05T04:29:30.340Z,2
2018-12-05T04:30:20.654Z,2
2018-12-05T04:31:10.724Z,2
2018-12-05T04:32:00.514Z,2
2018-12-05T04:32:50.862Z,2
2018-12-05T04:33:40.625Z,2
2018-12-05T04:34:30.693Z,2
2018-12-05T04:35:20.748Z,2
2018-12-05T04:36:11.099Z,2
2018-12-05T04:37:01.136Z,2
2018-12-05T04:54:15.753Z,2
2018-12-05T04:55:04.285Z,2
2018-12-05T04:55:54.332Z,2
2018-12-05T04:56:44.422Z,2
2018-12-05T04:57:34.441Z,2
2018-12-05T04:58:24.835Z,2
2018-12-05T04:59:16.093Z,2
2018-12-05T05:00:04.642Z,2
2018-12-05T05:00:54.387Z,2
2018-12-05T05:01:45.008Z,2
2018-12-05T05:02:34.514Z,2
2018-12-05T05:03:25.109Z,2
2018-12-05T05:04:15.186Z,2
2018-12-05T05:05:05.204Z,2
2018-12-05T05:05:55.412Z,2
2018-12-05T05:06:44.894Z,2
2018-12-05T05:07:35.137Z,2
2018-12-05T05:08:25.192Z,2
2018-12-05T05:09:15.519Z,2
2018-12-05T05:10:05.040Z,2
2018-12-05T05:10:55.637Z,2
2018-12-05T05:11:45.424Z,2
2018-12-05T05:12:35.737Z,2
2018-12-05T05:13:25.817Z,2
2018-12-05T05:14:15.584Z,2
2018-12-05T05:15:05.641Z,2
2018-12-05T05:15:55.414Z,2
2018-12-05T05:16:45.749Z,2
2018-12-05T05:17:35.817Z,2
2018-12-05T05:18:25.860Z,2
2018-12-05T05:19:16.345Z,2
2018-12-05T05:20:06.218Z,2
2018-12-05T05:20:55.759Z,2
2018-12-05T05:21:46.087Z,2
2018-12-05T05:22:36.164Z,2
2018-12-05T05:23:26.486Z,2
2018-12-05T05:24:16.262Z,2.1
2018-12-05T05:25:06.598Z,2.1
2018-12-05T05:25:56.411Z,2.1
2018-12-05T05:26:46.699Z,2.1
2018-12-05T05:27:36.838Z,2.2
2018-12-05T05:28:26.263Z,2.3
2018-12-05T05:29:16.878Z,2.3
2018-12-05T05:30:06.667Z,2.4
2018-12-05T05:30:56.427Z,2.4
2018-12-05T05:31:47.038Z,2.4
2018-12-05T05:32:36.280Z,2.4
2018-12-05T05:33:27.175Z,2.5
2018-12-05T05:34:17.217Z,2.5
2018-12-05T05:35:07.000Z,2.6
2018-12-05T05:35:56.781Z,2.6
2018-12-05T05:36:47.393Z,2.6
2018-12-05T05:37:37.185Z,2.6
2018-12-05T05:38:27.007Z,2.7
2018-12-05T05:39:17.559Z,2.7
2018-12-05T05:40:07.651Z,2.7
2018-12-05T05:40:57.665Z,2.8
2018-12-05T05:41:47.447Z,2.8
2018-12-05T05:42:37.222Z,2.8
2018-12-05T05:43:27.284Z,2.8
2018-12-05T05:44:17.637Z,2.9
2018-12-05T05:45:07.675Z,2.9
2018-12-05T05:45:57.999Z,2.9
2018-12-05T05:46:48.117Z,2.9
2018-12-05T05:47:38.122Z,2.9
2018-12-05T05:48:28.170Z,2.9
2018-12-05T05:49:18.227Z,2.9
2018-12-05T05:50:08.012Z,3
2018-12-05T05:50:58.074Z,3
2018-12-05T05:51:48.114Z,3.1
2018-12-05T05:52:37.914Z,3.1
2018-12-05T05:53:28.242Z,3.1
2018-12-05T05:54:18.584Z,3.1
2018-12-05T05:55:08.639Z,3.1
2018-12-05T05:55:58.691Z,3.1
2018-12-05T05:56:48.489Z,3.2
2018-12-05T05:57:38.528Z,3.2
2018-12-05T05:58:28.581Z,3.2
2018-12-05T05:59:18.907Z,3.2
2018-12-05T06:00:08.975Z,3.3
2018-12-05T06:00:58.467Z,3.3
2018-12-05T06:01:49.081Z,3.3
2018-12-05T06:02:39.149Z,3.3
2018-12-05T06:03:28.971Z,3.3
2018-12-05T06:04:19.256Z,3.3
2018-12-05T06:05:09.034Z,3.3
2018-12-05T06:05:59.061Z,3.4
2018-12-05T06:06:49.414Z,3.4
2018-12-05T06:07:38.925Z,3.4
2018-12-05T06:08:29.256Z,3.4
2018-12-05T06:09:19.594Z,3.4
2018-12-05T06:10:09.362Z,3.4
2018-12-05T06:10:59.161Z,3.4
2018-12-05T06:11:49.756Z,3.4
2018-12-05T06:12:39.829Z,3.5
2018-12-05T06:13:29.316Z,3.5
2018-12-05T06:14:19.931Z,3.5
2018-12-05T06:15:09.986Z,3.6
2018-12-05T06:16:00.336Z,3.6
2018-12-05T06:16:49.826Z,3.6
2018-12-05T06:17:39.604Z,3.6
2018-12-05T06:18:29.954Z,3.6
2018-12-05T06:19:20.261Z,3.6
2018-12-05T06:20:10.045Z,3.6
2018-12-05T06:21:00.427Z,3.7
2018-12-05T06:21:50.430Z,3.7
2018-12-05T06:22:40.217Z,3.7
2018-12-05T06:23:30.326Z,3.8
2018-12-05T06:24:20.328Z,3.8
2018-12-05T06:25:10.690Z,3.8
2018-12-05T06:26:00.765Z,3.8
2018-12-05T06:26:50.497Z,3.8
2018-12-05T06:27:40.568Z,3.8
2018-12-05T06:28:30.935Z,3.8
2018-12-05T06:29:20.945Z,3.9
2018-12-05T06:30:10.445Z,3.9
2018-12-05T06:31:00.772Z,3.9
2018-12-05T06:31:51.097Z,3.9
2018-12-05T06:32:40.891Z,3.9
2018-12-05T06:33:33.156Z,3.9
2018-12-05T06:34:21.294Z,4
2018-12-05T06:35:11.335Z,4
2018-12-05T06:36:01.125Z,4.1
2018-12-05T06:36:51.452Z,4.1
2018-12-05T06:37:41.760Z,4.1
2018-12-05T06:38:31.569Z,4.1
2018-12-05T06:39:21.624Z,4.1
2018-12-05T06:40:11.401Z,4.2
2018-12-05T06:41:01.472Z,4.2
2018-12-05T06:41:51.582Z,4.2
2018-12-05T06:42:41.849Z,4.3
2018-12-05T06:43:31.909Z,4.3
2018-12-05T06:44:21.958Z,4.3
2018-12-05T06:45:12.026Z,4.3
2018-12-05T06:46:01.519Z,4.4
2018-12-05T06:46:51.854Z,4.4
2018-12-05T06:47:41.926Z,4.4
2018-12-05T06:48:32.266Z,4.4
2018-12-05T06:49:21.759Z,4.5
2018-12-05T06:50:12.364Z,4.5
2018-12-05T06:51:02.437Z,4.5
2018-12-05T06:51:51.654Z,4.6
2018-12-05T06:52:41.982Z,4.6
2018-12-05T06:53:32.590Z,4.6
2018-12-05T06:54:22.652Z,4.7
2018-12-05T06:55:12.496Z,4.7
2018-12-05T06:56:02.778Z,4.8
2018-12-05T06:56:52.816Z,4.8
2018-12-05T06:57:42.596Z,4.8
2018-12-05T06:58:32.943Z,4.8
2018-12-05T06:59:22.991Z,4.9
2018-12-05T07:00:12.790Z,4.9
2018-12-05T07:01:02.838Z,4.9
2018-12-05T07:01:53.209Z,4.9
2018-12-05T07:02:43.224Z,5
2018-12-05T07:03:32.985Z,5.1
2018-12-05T07:04:23.328Z,5.1
2018-12-05T07:05:13.112Z,5.1
2018-12-05T07:06:03.441Z,5.2
2018-12-05T07:06:53.228Z,5.3
2018-12-05T07:07:43.301Z,5.3
2018-12-05T07:08:33.641Z,5.3
2018-12-05T07:09:23.672Z,5.4
2018-12-05T07:10:13.460Z,5.4
2018-12-05T07:11:03.795Z,5.5
2018-12-05T07:11:53.552Z,5.6
2018-12-05T07:12:43.636Z,5.6
2018-12-05T07:13:33.954Z,5.6
2018-12-05T07:14:24.067Z,5.7
2018-12-05T07:15:13.525Z,5.8
2018-12-05T07:16:04.132Z,5.9
2018-12-05T07:16:53.912Z,5.9
2018-12-05T07:17:43.747Z,5.9
2018-12-05T07:18:35.383Z,6.1
2018-12-05T07:19:24.909Z,6.1
2018-12-05T07:20:14.156Z,6.2
2018-12-05T07:21:04.474Z,6.3
2018-12-05T07:21:54.249Z,6.3
2018-12-05T07:22:44.314Z,6.4
2018-12-05T07:23:34.639Z,6.5
2018-12-05T07:24:24.726Z,6.6
2018-12-05T07:25:14.214Z,6.6
2018-12-05T07:26:04.901Z,6.8
2018-12-05T07:26:54.601Z,6.8
2018-12-05T07:27:44.654Z,6.9
2018-12-05T07:28:34.954Z,7
2018-12-05T07:29:25.014Z,7.1
2018-12-05T07:30:14.550Z,7.3
2018-12-05T07:31:04.619Z,7.4
2018-12-05T07:31:54.952Z,7.4
2018-12-05T07:32:45.395Z,7.6
2018-12-05T07:33:35.333Z,7.7
2018-12-05T07:34:24.853Z,7.8
2018-12-05T07:35:15.160Z,7.9
2018-12-05T07:36:05.226Z,8.1
2018-12-05T07:36:55.014Z,8.3
2018-12-05T07:37:45.066Z,8.4
2018-12-05T07:38:35.390Z,8.6
2018-12-05T07:39:25.188Z,8.8
2018-12-05T07:40:15.798Z,9
2018-12-05T07:41:05.570Z,9.3
2018-12-05T07:41:55.900Z,9.4
2018-12-05T07:42:45.760Z,9.7
2018-12-05T07:43:36.013Z,9.9
2018-12-05T07:44:26.070Z,10.3
2018-12-05T07:45:16.133Z,10.6
2018-12-05T07:46:06.190Z,11.3
2018-12-05T07:46:56.247Z,12.2
2018-12-05T07:47:46.370Z,13.4
2018-12-05T07:48:36.352Z,14.9
2018-12-05T07:49:26.476Z,16.7
2018-12-05T07:50:18.260Z,18.8
2018-12-05T07:51:06.258Z,20.9
2018-12-05T07:51:56.579Z,22.8
2018-12-05T07:52:46.374Z,24.7
2018-12-05T07:53:36.480Z,26.5
2018-12-05T07:54:26.486Z,28.2
2018-12-05T07:55:16.535Z,29.8
2018-12-05T07:56:06.882Z,31.3
2018-12-05T07:56:56.648Z,32.6
2018-12-05T07:57:46.712Z,33.9
2018-12-05T07:58:37.032Z,35.1
2018-12-05T07:59:27.374Z,36.3
2018-12-05T08:00:17.139Z,37.3
2018-12-05T08:01:06.394Z,38.4
2018-12-05T08:01:57.277Z,39.4
2018-12-05T08:02:47.051Z,40.4
2018-12-05T08:03:37.637Z,41.2
2018-12-05T08:04:27.452Z,41.9
2018-12-05T08:05:17.509Z,42.8
2018-12-05T08:06:07.633Z,43.6
2018-12-05T08:06:57.631Z,44.4
2018-12-05T08:07:47.674Z,45.3
2018-12-05T08:08:37.819Z,45.8
2018-12-05T08:09:27.809Z,46.4
2018-12-05T08:10:17.697Z,46.9
2018-12-05T08:11:07.865Z,47.6
2018-12-05T08:11:57.973Z,48.3
2018-12-05T08:12:48.015Z,49
2018-12-05T08:13:38.078Z,49.6
2018-12-05T08:14:27.868Z,50.3
2018-12-05T08:15:18.200Z,50.9
2018-12-05T08:16:08.508Z,51.4
2018-12-05T08:16:57.480Z,52
2018-12-05T08:17:48.380Z,52.5
2018-12-05T08:18:37.882Z,53
2018-12-05T08:19:28.505Z,53.5
2018-12-05T08:20:18.272Z,53.9
2018-12-05T08:21:08.360Z,54.3
2018-12-05T08:21:58.118Z,54.8
2018-12-05T08:22:48.442Z,55.3
2018-12-05T08:23:38.767Z,55.8
2018-12-05T08:24:29.089Z,56.3
2018-12-05T08:25:18.889Z,56.6
2018-12-05T08:26:08.679Z,56.9
2018-12-05T08:26:58.997Z,57.2
2018-12-05T08:27:48.872Z,57.4
2018-12-05T08:28:39.116Z,57.5
2018-12-05T08:29:29.177Z,57.4
2018-12-05T08:30:19.237Z,57
2018-12-05T08:31:09.357Z,56.6
2018-12-05T08:31:59.361Z,56.1
2018-12-05T08:32:49.416Z,55.5
2018-12-05T08:33:39.191Z,55
2018-12-05T08:34:29.271Z,54.3
2018-12-05T08:35:19.576Z,53.8
2018-12-05T08:36:09.369Z,53.1
2018-12-05T08:36:59.708Z,52.4
2018-12-05T08:37:49.198Z,51.8
2018-12-05T08:38:39.543Z,51
2018-12-05T08:39:29.849Z,50.2
2018-12-05T08:40:19.643Z,49.4
2018-12-05T08:41:09.995Z,48.6
2018-12-05T08:42:00.048Z,47.8
2018-12-05T08:42:50.097Z,47
2018-12-05T08:43:40.168Z,46.3
2018-12-05T08:44:30.210Z,45.5
2018-12-05T08:45:19.992Z,44.8
2018-12-05T08:46:10.057Z,44.4
2018-12-05T08:46:59.833Z,44.3
2018-12-05T08:47:50.452Z,44.4
2018-12-05T08:48:40.513Z,44.6
2018-12-05T08:49:30.040Z,45.1
2018-12-05T08:50:20.360Z,45.6
2018-12-05T08:51:10.687Z,46
2018-12-05T08:52:00.177Z,46.6
2018-12-05T08:52:50.802Z,47.1
2018-12-05T09:08:38.241Z,60.4
2018-12-05T09:09:28.658Z,61.1
2018-12-05T09:10:18.387Z,61.5
2018-12-05T09:11:08.728Z,61.8
2018-12-05T09:11:58.488Z,61.8
2018-12-05T09:12:48.826Z,61.8
2018-12-05T09:13:38.724Z,61.8
2018-12-05T09:14:31.448Z,61.7
2018-12-05T09:15:19.009Z,61.6
2018-12-05T09:16:09.068Z,61.1
2018-12-05T09:16:58.846Z,60.6
2018-12-05T09:17:49.428Z,60.1
2018-12-05T09:18:38.958Z,59.5
2018-12-05T09:19:29.018Z,59
2018-12-05T09:20:19.063Z,58.4
2018-12-05T09:21:08.845Z,57.6
2018-12-05T09:21:59.465Z,56.8
2018-12-05T09:22:49.773Z,56.1
2018-12-05T09:23:39.298Z,55.3
2018-12-05T09:24:29.365Z,54.4
2018-12-05T09:25:19.423Z,53.6
2018-12-05T09:26:09.744Z,52.6
2018-12-05T09:26:59.250Z,51.7
2018-12-05T09:27:49.870Z,50.9
2018-12-05T09:28:39.640Z,50
2018-12-05T09:29:29.500Z,49.1
2018-12-05T09:30:19.205Z,48.3
2018-12-05T09:31:09.609Z,47.4
2018-12-05T09:31:59.870Z,46.5
2018-12-05T09:32:50.282Z,45.7
2018-12-05T09:33:39.993Z,44.8
2018-12-05T09:34:30.328Z,44.1
2018-12-05T09:35:20.721Z,43.3
2018-12-05T09:36:10.445Z,42.6
2018-12-05T09:37:00.584Z,41.9
2018-12-05T09:37:50.557Z,41.1
2018-12-05T09:38:40.607Z,40.4
2018-12-05T09:39:30.657Z,39.8
2018-12-05T09:40:20.445Z,39.2
2018-12-05T09:41:10.492Z,38.6
2018-12-05T09:42:00.299Z,37.9
2018-12-05T09:42:50.892Z,37.3
2018-12-05T09:43:40.964Z,36.6
2018-12-05T09:44:31.056Z,36
2018-12-05T09:45:20.809Z,35.4
2018-12-05T09:46:11.156Z,34.9
2018-12-05T09:47:00.914Z,34.4
2018-12-05T09:47:50.661Z,33.8
2018-12-05T09:48:41.034Z,33.4
2018-12-05T09:49:31.659Z,32.9
2018-12-05T09:50:21.411Z,32.3
2018-12-05T09:51:11.471Z,31.8
2018-12-05T09:52:01.526Z,31.3
2018-12-05T09:52:51.879Z,30.9
2018-12-05T09:53:41.195Z,30.5
2018-12-05T09:54:31.751Z,30.1
2018-12-05T09:55:21.486Z,29.8
2018-12-05T09:56:11.541Z,29.4
2018-12-05T09:57:01.881Z,29.1
2018-12-05T09:57:51.929Z,28.7
2018-12-05T09:58:41.241Z,28.3
2018-12-05T09:59:32.016Z,27.9
2018-12-05T10:00:21.553Z,27.6
2018-12-05T10:01:11.903Z,27.3
2018-12-05T10:02:02.223Z,27.1
2018-12-05T10:02:52.298Z,26.8
2018-12-05T10:03:41.500Z,26.5
2018-12-05T10:04:32.121Z,26.3
2018-12-05T10:05:22.466Z,26.1
2018-12-05T10:06:11.960Z,25.9
2018-12-05T10:07:02.295Z,25.8
2018-12-05T10:07:52.626Z,25.6
2018-12-05T10:08:42.410Z,25.4
2018-12-05T10:09:32.467Z,25.2
2018-12-05T10:10:22.252Z,25
2018-12-05T10:11:12.596Z,24.8
2018-12-05T10:12:02.655Z,24.6
2018-12-05T10:12:52.793Z,24.4
2018-12-05T10:13:43.328Z,24.3
2018-12-05T10:14:32.534Z,24.1
2018-12-05T10:15:22.871Z,23.8
2018-12-05T10:16:13.209Z,23.6
2018-12-05T10:17:02.977Z,23.4
2018-12-05T10:17:53.065Z,23.1
2018-12-05T10:18:43.094Z,22.9
2018-12-05T10:19:33.159Z,22.7
2018-12-05T10:20:22.941Z,22.5
2018-12-05T10:21:13.586Z,22.3
2018-12-05T10:22:03.119Z,22.1
2018-12-05T10:22:53.743Z,21.9
2018-12-05T10:23:43.721Z,21.7
2018-12-05T10:24:33.789Z,21.4
2018-12-05T10:25:23.542Z,21.3
2018-12-05T10:27:03.939Z,20.9
2018-12-05T10:27:53.721Z,20.8
2018-12-05T10:28:44.065Z,20.6
2018-12-05T10:29:34.111Z,20.4
2018-12-05T10:30:24.150Z,20.3
2018-12-05T10:31:14.228Z,20.2
2018-12-05T10:32:05.647Z,20
2018-12-05T10:32:54.073Z,19.8
2018-12-05T10:33:44.119Z,19.8
2018-12-05T10:34:34.459Z,19.7
2018-12-05T10:35:24.510Z,19.6
2018-12-05T10:36:14.300Z,19.4
2018-12-05T10:37:04.083Z,19.3
2018-12-05T10:37:56.183Z,19.2
2018-12-05T10:38:44.455Z,19.1
2018-12-05T10:39:34.572Z,18.9
2018-12-05T10:40:24.573Z,18.8
2018-12-05T10:42:04.717Z,18.6
2018-12-05T10:42:54.262Z,18.6
2018-12-05T10:43:45.074Z,18.4
2018-12-05T10:44:35.209Z,18.3
2018-12-05T10:45:25.257Z,18.2
2018-12-05T10:46:15.254Z,18.1
2018-12-05T10:47:05.043Z,18.1
2018-12-05T10:47:55.082Z,18
2018-12-05T10:48:45.430Z,17.9
2018-12-05T10:49:35.231Z,17.8
2018-12-05T10:50:25.547Z,17.8
2018-12-05T10:51:15.604Z,17.8
2018-12-05T10:52:05.663Z,17.7
2018-12-05T10:52:55.719Z,17.7
2018-12-05T10:53:45.494Z,17.6
2018-12-05T10:54:35.956Z,17.6
2018-12-05T10:55:25.613Z,17.4
2018-12-05T10:56:15.689Z,17.4
2018-12-05T10:57:05.989Z,17.4
2018-12-05T10:57:56.156Z,17.4
2018-12-05T10:58:45.851Z,17.3
2018-12-05T10:59:35.943Z,17.3
2018-12-05T11:00:25.968Z,17.2
2018-12-05T11:01:16.013Z,17.2
2018-12-05T11:02:06.338Z,17.1
2018-12-05T11:02:56.403Z,17.1
2018-12-05T11:03:46.463Z,17.1
2018-12-05T11:04:36.242Z,17.1
2018-12-05T11:05:26.297Z,17.2
2018-12-05T11:06:16.636Z,17.3
2018-12-05T11:07:06.427Z,17.3
2018-12-05T11:07:56.738Z,17.3
2018-12-05T11:08:46.807Z,17.3
2018-12-05T11:09:36.577Z,17.3
2018-12-05T11:10:26.635Z,17.4
2018-12-05T11:11:16.695Z,17.6
2018-12-05T11:12:06.770Z,17.6
2018-12-05T11:12:57.082Z,17.8
2018-12-05T11:13:47.155Z,17.8
2018-12-05T11:14:37.202Z,17.9
2018-12-05T11:15:27.256Z,18
2018-12-05T11:16:17.317Z,18.1
2018-12-05T11:17:07.374Z,18.2
2018-12-05T11:17:57.472Z,18.3
2018-12-05T11:18:47.492Z,18.3
2018-12-05T11:19:37.589Z,18.4
2018-12-05T11:20:27.687Z,18.4
2018-12-05T11:21:17.649Z,18.4
2018-12-05T11:22:07.779Z,18.4
2018-12-05T11:22:57.779Z,18.4
2018-12-05T11:23:49.514Z,18.5
2018-12-05T11:24:37.607Z,18.4
2018-12-05T11:25:27.399Z,18.4
2018-12-05T11:26:18.001Z,18.4
2018-12-05T11:27:08.357Z,18.3
2018-12-05T11:27:58.371Z,18.3
2018-12-05T11:28:47.893Z,18.3
2018-12-05T11:29:37.758Z,18.3
2018-12-05T11:30:27.809Z,18.3
2018-12-05T11:31:17.583Z,18.2
2018-12-05T11:32:08.128Z,18.2
2018-12-05T11:32:58.148Z,18.1
2018-12-05T11:33:48.533Z,18
2018-12-05T11:34:37.744Z,18
2018-12-05T11:35:28.350Z,17.9
2018-12-05T11:36:18.433Z,17.8
2018-12-05T11:37:08.765Z,17.8
2018-12-05T11:37:58.530Z,17.7
2018-12-05T11:38:48.862Z,17.6
2018-12-05T11:39:38.654Z,17.6
2018-12-05T11:40:28.699Z,17.5
2018-12-05T11:41:19.014Z,17.5
2018-12-05T11:42:08.913Z,17.4
2018-12-05T11:42:59.194Z,17.4
2018-12-05T11:43:49.197Z,17.3
2018-12-05T11:44:39.260Z,17.2
2018-12-05T11:45:29.037Z,17.1
2018-12-05T11:46:19.101Z,17.1
2018-12-05T11:47:59.739Z,16.9
2018-12-05T11:48:49.267Z,16.8
2018-12-05T11:49:39.348Z,16.8
2018-12-05T11:50:29.434Z,16.7
2018-12-05T11:51:19.249Z,16.7
2018-12-05T11:52:09.504Z,16.6
2018-12-05T11:52:59.823Z,16.6
2018-12-05T11:53:50.131Z,16.5
2018-12-05T11:54:39.961Z,16.4
2018-12-05T11:55:30.144Z,16.3
2018-12-05T11:56:20.069Z,16.3
2018-12-05T11:57:10.111Z,16.2
2018-12-05T11:58:00.430Z,16.1
2018-12-05T11:58:50.478Z,16.1
2018-12-05T11:59:40.021Z,16
2018-12-05T12:00:30.598Z,15.9
2018-12-05T12:01:20.411Z,15.9
2018-12-05T12:02:10.480Z,15.8
2018-12-05T12:03:00.238Z,15.7
2018-12-05T12:03:50.108Z,15.6
2018-12-05T12:04:40.358Z,15.5
2018-12-05T12:05:30.741Z,15.4
2018-12-05T12:06:20.746Z,15.3
2018-12-05T12:07:10.800Z,15.3
2018-12-05T12:08:00.860Z,15.2
2018-12-05T12:08:51.301Z,15.1
2018-12-05T12:09:40.970Z,15
2018-12-05T12:10:30.531Z,14.9
2018-12-05T12:11:20.805Z,14.9
2018-12-05T12:12:10.925Z,14.8
2018-12-05T12:13:00.925Z,14.8
2018-12-05T12:13:51.259Z,14.7
2018-12-05T12:14:41.312Z,14.6
2018-12-05T12:15:31.393Z,14.5